Terminal Aerodrome Forecast
Issued by NWS

Home | Current Version | Previous Version | Text Only | Print | Product List | Glossary On
Versions: 1 2 3 4 5 6 7 8 9 10 11 12 13 14 15 16 17 18 19 20 21 22 23 24 25 26 27 28 29 30 31 32 33 34 35 36 37 38 39 40 41 42 43 44 45 46 47 48
000
FTUS44 KHGX 250937 AAC
TAFSGR
TAF AMD
KSGR 250937Z 2510/2606 11005KT P6SM VCTS FEW025CB SCT070 SCT250
      TEMPO 2510/2512 VRB15KT -TSRA BKN025CB
     FM251500 13007KT P6SM VCTS BKN040CB
     FM252200 13006KT P6SM SCT035
     FM260100 VRB04KT P6SM SCT250=

USA.gov is the U.S. government's official web portal to all federal, state and local government web resources and services.